createdAt,value
2023-03-05T00:00:03.231Z,1.70
2023-03-05T00:01:03.408Z,1.70
2023-03-05T00:02:05.262Z,1.70
2023-03-05T00:03:03.167Z,1.73
2023-03-05T00:04:03.190Z,1.73
2023-03-05T00:05:03.193Z,1.74
2023-03-05T00:06:03.196Z,1.73
2023-03-05T00:07:03.157Z,1.74
2023-03-05T00:08:03.120Z,1.74
2023-03-05T00:09:03.127Z,1.76
2023-03-05T00:10:03.123Z,1.78
2023-03-05T00:11:03.079Z,1.77
2023-03-05T00:12:06.305Z,1.77
2023-03-05T00:13:03.089Z,1.78
2023-03-05T00:14:03.049Z,1.80
2023-03-05T00:15:03.068Z,1.80
2023-03-05T00:16:03.196Z,1.84
2023-03-05T00:17:03.045Z,1.84
2023-03-05T00:18:03.028Z,1.84
2023-03-05T00:19:03.045Z,1.81
2023-03-05T00:20:03.021Z,1.81
2023-03-05T00:21:02.980Z,1.81
2023-03-05T00:22:02.987Z,1.80
2023-03-05T00:23:02.945Z,1.78
2023-03-05T00:24:02.969Z,1.78
2023-03-05T00:25:02.950Z,1.76
2023-03-05T00:26:02.971Z,1.76
2023-03-05T00:27:05.905Z,1.77
2023-03-05T00:28:02.919Z,1.76
2023-03-05T00:29:02.885Z,1.78
2023-03-05T00:30:02.877Z,1.78
2023-03-05T00:31:02.883Z,1.77
2023-03-05T00:32:03.019Z,1.78
2023-03-05T00:33:02.869Z,1.76
2023-03-05T00:34:02.859Z,1.76
2023-03-05T00:35:02.831Z,1.77
2023-03-05T00:36:02.852Z,1.77
2023-03-05T00:37:02.812Z,1.76
2023-03-05T00:38:02.840Z,1.78
2023-03-05T00:39:02.818Z,1.78
2023-03-05T00:40:02.854Z,1.78
2023-03-05T00:41:02.790Z,1.76
2023-03-05T00:42:05.759Z,1.80
2023-03-05T00:43:02.786Z,1.80
2023-03-05T00:44:02.742Z,1.84
2023-03-05T00:45:03.700Z,1.80
2023-03-05T00:46:02.761Z,1.81
2023-03-05T00:47:02.700Z,1.81
2023-03-05T00:48:02.712Z,1.80
2023-03-05T00:49:02.677Z,1.80
2023-03-05T00:50:02.693Z,1.80
2023-03-05T00:51:02.683Z,1.80
2023-03-05T00:52:02.681Z,1.78
2023-03-05T00:53:02.642Z,1.81
2023-03-05T00:54:02.653Z,1.81
2023-03-05T00:55:02.642Z,1.80
2023-03-05T00:56:02.791Z,1.81
2023-03-05T00:57:05.605Z,1.84
2023-03-05T00:58:02.604Z,1.84
2023-03-05T00:59:02.606Z,1.81
2023-03-05T01:00:02.599Z,1.81
2023-03-05T01:01:02.607Z,1.81
2023-03-05T01:02:02.671Z,1.81
2023-03-05T01:03:02.565Z,1.84
2023-03-05T01:04:02.549Z,1.81
2023-03-05T01:05:02.552Z,1.80
2023-03-05T01:06:02.521Z,1.81
2023-03-05T01:07:02.619Z,1.84
2023-03-05T01:08:02.475Z,1.80
2023-03-05T01:09:02.476Z,1.81
2023-03-05T01:10:02.480Z,1.80
2023-03-05T01:11:02.501Z,1.80
2023-03-05T01:12:05.450Z,1.81
2023-03-05T01:13:02.430Z,1.81
2023-03-05T01:14:02.438Z,1.80
2023-03-05T01:15:02.412Z,1.81
2023-03-05T01:16:02.471Z,1.80
2023-03-05T01:17:02.387Z,1.81
2023-03-05T01:18:02.353Z,1.81
2023-03-05T01:19:02.344Z,1.81
2023-03-05T01:20:02.337Z,1.81
2023-03-05T01:21:02.351Z,1.84
2023-03-05T01:22:02.385Z,1.84
2023-03-05T01:23:02.330Z,1.85
2023-03-05T01:24:02.298Z,1.85
2023-03-05T01:25:02.310Z,1.85
2023-03-05T01:26:02.312Z,1.87
2023-03-05T01:27:05.262Z,1.87
2023-03-05T01:28:02.259Z,1.88
2023-03-05T01:29:02.261Z,1.85
2023-03-05T01:30:02.237Z,1.84
2023-03-05T01:31:02.239Z,1.85
2023-03-05T01:32:02.295Z,1.88
2023-03-05T01:33:02.228Z,1.88
2023-03-05T01:34:02.180Z,1.88
2023-03-05T01:35:02.197Z,1.87
2023-03-05T01:36:02.160Z,1.88
2023-03-05T01:37:02.292Z,1.89
2023-03-05T01:38:02.144Z,1.88
2023-03-05T01:39:02.168Z,1.88
2023-03-05T01:40:02.184Z,1.88
2023-03-05T01:41:02.140Z,1.88
2023-03-05T01:42:05.124Z,1.88
2023-03-05T01:43:02.134Z,1.88
2023-03-05T01:44:02.079Z,1.87
2023-03-05T01:45:02.070Z,1.87
2023-03-05T01:46:02.079Z,1.87
2023-03-05T01:47:02.080Z,1.84
2023-03-05T01:48:02.041Z,1.87
2023-03-05T01:49:02.048Z,1.88
2023-03-05T01:50:02.046Z,1.87
2023-03-05T01:51:02.114Z,1.87
2023-03-05T01:52:02.027Z,1.89
2023-03-05T01:53:01.987Z,1.89
2023-03-05T01:54:01.996Z,1.91
2023-03-05T01:55:01.984Z,1.89
2023-03-05T01:56:01.953Z,1.91
2023-03-05T01:57:04.984Z,1.91
2023-03-05T01:58:01.948Z,1.91
2023-03-05T01:59:01.956Z,1.91
2023-03-05T02:00:01.965Z,1.92
2023-03-05T02:01:01.981Z,1.92
2023-03-05T02:02:01.897Z,1.91
2023-03-05T02:03:01.920Z,1.89
2023-03-05T02:04:01.905Z,1.91
2023-03-05T02:05:01.883Z,1.92
2023-03-05T02:06:01.840Z,1.92
2023-03-05T02:07:01.863Z,1.94
2023-03-05T02:08:01.842Z,1.92
2023-03-05T02:09:01.830Z,1.92
2023-03-05T02:10:01.839Z,1.92
2023-03-05T02:11:01.796Z,1.91
2023-03-05T02:12:04.799Z,1.94
2023-03-05T02:13:01.789Z,1.92
2023-03-05T02:14:01.800Z,1.92
2023-03-05T02:15:01.847Z,1.92
2023-03-05T02:16:01.786Z,1.94
2023-03-05T02:17:01.729Z,1.94
2023-03-05T02:18:01.736Z,1.94
2023-03-05T02:19:01.739Z,1.91
2023-03-05T02:20:01.727Z,1.92
2023-03-05T02:21:01.730Z,1.92
2023-03-05T02:22:01.708Z,1.92
2023-03-05T02:23:01.670Z,1.92
2023-03-05T02:24:01.683Z,1.95
2023-03-05T02:25:01.689Z,1.94
2023-03-05T02:26:01.680Z,1.94
2023-03-05T02:27:04.630Z,1.95
2023-03-05T02:28:01.646Z,1.95
2023-03-05T02:29:01.612Z,1.97
2023-03-05T02:30:01.621Z,1.94
2023-03-05T02:31:01.598Z,1.94
2023-03-05T02:32:01.768Z,1.92
2023-03-05T02:33:01.590Z,1.92
2023-03-05T02:34:01.563Z,1.92
2023-03-05T02:35:01.578Z,1.92
2023-03-05T02:36:01.571Z,1.92
2023-03-05T02:37:01.573Z,1.92
2023-03-05T02:38:01.514Z,1.94
2023-03-05T02:39:01.513Z,1.92
2023-03-05T02:40:01.532Z,1.92
2023-03-05T02:41:01.494Z,1.94
2023-03-05T02:42:04.519Z,1.94
2023-03-05T02:43:01.517Z,1.95
2023-03-05T02:44:01.451Z,1.94
2023-03-05T02:45:01.448Z,1.94
2023-03-05T02:46:01.561Z,1.94
2023-03-05T02:47:01.431Z,1.92
2023-03-05T02:48:01.441Z,1.94
2023-03-05T02:49:01.435Z,1.91
2023-03-05T02:50:01.408Z,1.94
2023-03-05T02:51:01.432Z,1.92
2023-03-05T02:52:01.379Z,1.92
2023-03-05T02:53:01.492Z,1.91
2023-03-05T02:54:01.393Z,1.92
2023-03-05T02:55:01.387Z,1.91
2023-03-05T02:56:01.340Z,1.91
2023-03-05T02:57:04.324Z,1.91
2023-03-05T02:58:01.363Z,1.89
2023-03-05T02:59:01.302Z,1.88
2023-03-05T03:00:01.549Z,1.88
2023-03-05T03:01:01.322Z,1.89
2023-03-05T03:02:01.277Z,1.92
2023-03-05T03:03:01.357Z,1.91
2023-03-05T03:04:01.298Z,1.89
2023-03-05T03:05:01.269Z,1.92
2023-03-05T03:06:01.265Z,1.92
2023-03-05T03:07:01.229Z,1.94
2023-03-05T03:08:01.221Z,1.92
2023-03-05T03:09:01.258Z,1.92
2023-03-05T03:10:01.232Z,1.92
2023-03-05T03:11:01.186Z,1.94
2023-03-05T03:12:04.199Z,1.94
2023-03-05T03:13:01.202Z,1.94
2023-03-05T03:14:01.178Z,1.95
2023-03-05T03:15:01.169Z,1.95
2023-03-05T03:16:01.167Z,1.94
2023-03-05T03:17:01.245Z,1.92
2023-03-05T03:18:01.116Z,1.91
2023-03-05T03:19:01.098Z,1.92
2023-03-05T03:20:01.141Z,1.92
2023-03-05T03:21:01.081Z,1.95
2023-03-05T03:22:01.075Z,1.92
2023-03-05T03:23:01.085Z,1.91
2023-03-05T03:24:01.094Z,1.92
2023-03-05T03:25:01.043Z,1.91
2023-03-05T03:26:01.083Z,1.92
2023-03-05T03:27:04.065Z,1.91
2023-03-05T03:28:01.059Z,1.92
2023-03-05T03:29:01.028Z,1.91
2023-03-05T03:30:01.004Z,1.91
2023-03-05T03:31:00.993Z,1.88
2023-03-05T03:32:01.004Z,1.91
2023-03-05T03:33:00.957Z,1.89
2023-03-05T03:34:01.005Z,1.92
2023-03-05T03:35:00.968Z,1.89
2023-03-05T03:36:01.013Z,1.91
2023-03-05T03:37:00.951Z,1.91
2023-03-05T03:38:00.940Z,1.92
2023-03-05T03:39:00.933Z,1.92
2023-03-05T03:40:00.920Z,1.95
2023-03-05T03:41:00.887Z,1.94
2023-03-05T03:42:03.924Z,1.94
2023-03-05T03:43:00.910Z,1.95
2023-03-05T03:44:00.846Z,1.94
2023-03-05T03:45:00.868Z,1.95
2023-03-05T03:46:00.884Z,1.95
2023-03-05T03:47:00.850Z,1.95
2023-03-05T03:48:00.844Z,1.97
2023-03-05T03:49:00.857Z,1.97
2023-03-05T03:50:00.788Z,1.94
2023-03-05T03:51:00.775Z,1.94
2023-03-05T03:52:00.897Z,1.92
2023-03-05T03:53:00.783Z,1.94
2023-03-05T03:54:00.827Z,1.94
2023-03-05T03:55:00.732Z,1.91
2023-03-05T03:56:00.737Z,1.92
2023-03-05T03:57:03.798Z,1.92
2023-03-05T03:58:00.752Z,1.94
2023-03-05T03:59:00.699Z,1.94
2023-03-05T04:00:00.715Z,1.94
2023-03-05T04:01:00.681Z,1.94
2023-03-05T04:02:00.723Z,1.95
2023-03-05T04:03:00.661Z,1.94
2023-03-05T04:04:00.763Z,1.95
2023-03-05T04:05:00.664Z,1.97
2023-03-05T04:06:00.644Z,1.97
2023-03-05T04:07:00.632Z,1.97
2023-03-05T04:08:00.624Z,1.97
2023-03-05T04:09:00.626Z,1.99
2023-03-05T04:10:00.581Z,1.97
2023-03-05T04:11:00.632Z,1.97
2023-03-05T04:12:03.562Z,1.97
2023-03-05T04:13:00.573Z,1.99
2023-03-05T04:14:00.588Z,1.99
2023-03-05T04:15:00.534Z,2.00
2023-03-05T04:16:00.570Z,1.99
2023-03-05T04:17:00.534Z,2.00
2023-03-05T04:18:00.501Z,2.00
2023-03-05T04:19:00.647Z,2.00
2023-03-05T04:20:00.482Z,2.00
2023-03-05T04:21:00.510Z,1.97
2023-03-05T04:22:01.428Z,2.00
2023-03-05T04:23:00.452Z,1.99
2023-03-05T04:24:00.440Z,1.97
2023-03-05T04:25:00.444Z,1.99
2023-03-05T04:26:00.466Z,1.97
2023-03-05T04:27:03.403Z,1.97
2023-03-05T04:28:00.451Z,1.95
2023-03-05T04:29:00.388Z,1.97
2023-03-05T04:30:00.366Z,1.97
2023-03-05T04:31:00.438Z,2.00
2023-03-05T04:32:00.456Z,1.97
2023-03-05T04:33:00.340Z,1.95
2023-03-05T04:34:00.355Z,1.97
2023-03-05T04:35:00.328Z,1.95
2023-03-05T04:36:00.312Z,1.99
2023-03-05T04:37:00.335Z,1.97
2023-03-05T04:38:00.306Z,1.97
2023-03-05T04:39:00.320Z,1.97
2023-03-05T04:40:00.272Z,1.95
2023-03-05T04:41:00.263Z,2.00
2023-03-05T04:42:03.255Z,1.99
2023-03-05T04:43:00.254Z,2.00
2023-03-05T04:44:00.235Z,1.99
2023-03-05T04:45:00.229Z,2.00
2023-03-05T04:46:00.230Z,2.00
2023-03-05T04:47:00.190Z,2.00
2023-03-05T04:48:00.182Z,1.99
2023-03-05T04:49:00.207Z,1.99
2023-03-05T04:50:00.397Z,2.00
2023-03-05T04:51:00.146Z,2.02
2023-03-05T04:52:00.160Z,2.00
2023-03-05T04:53:00.159Z,2.04
2023-03-05T04:54:00.144Z,2.02
2023-03-05T04:55:00.205Z,2.04
2023-03-05T04:56:00.134Z,2.06
2023-03-05T04:57:03.104Z,2.04
2023-03-05T04:58:00.110Z,2.02
2023-03-05T04:59:00.107Z,2.06
2023-03-05T05:00:00.066Z,2.04
2023-03-05T05:01:00.209Z,2.06
2023-03-05T05:02:00.180Z,2.06
2023-03-05T05:03:00.129Z,2.04
2023-03-05T05:04:00.057Z,2.04
2023-03-05T05:05:00.034Z,1.99
2023-03-05T05:06:00.001Z,1.99
2023-03-05T05:07:00.033Z,1.99
2023-03-05T05:07:59.985Z,1.97
2023-03-05T05:08:59.973Z,1.99
2023-03-05T05:09:59.963Z,1.97
2023-03-05T05:10:59.970Z,1.99
2023-03-05T05:12:02.963Z,1.99
2023-03-05T05:12:59.988Z,1.99
2023-03-05T05:13:59.955Z,1.97
2023-03-05T05:15:00.055Z,1.97
2023-03-05T05:15:59.988Z,1.97
2023-03-05T05:16:59.933Z,1.97
2023-03-05T05:17:59.900Z,1.97
2023-03-05T05:19:00.000Z,1.94
2023-03-05T05:19:59.857Z,1.94
2023-03-05T05:20:59.985Z,1.94
2023-03-05T05:21:59.845Z,1.94
2023-03-05T05:22:59.823Z,1.95
2023-03-05T05:23:59.846Z,1.94
2023-03-05T05:24:59.838Z,1.94
2023-03-05T05:25:59.817Z,1.94
2023-03-05T05:27:02.807Z,1.92
2023-03-05T05:27:59.796Z,1.94
2023-03-05T05:28:59.765Z,1.92
2023-03-05T05:29:59.776Z,1.91
2023-03-05T05:30:59.725Z,1.92
2023-03-05T05:31:59.730Z,1.91
2023-03-05T05:32:59.752Z,1.91
2023-03-05T05:33:59.746Z,1.91
2023-03-05T05:34:59.747Z,1.92
2023-03-05T05:35:59.709Z,1.89
2023-03-05T05:36:59.719Z,1.88
2023-03-05T05:38:00.608Z,1.87
2023-03-05T05:38:59.642Z,1.81
2023-03-05T05:39:59.629Z,1.78
2023-03-05T05:40:59.594Z,1.77
2023-03-05T05:42:02.620Z,1.77
2023-03-05T05:42:59.615Z,1.77
2023-03-05T05:43:59.592Z,1.74
2023-03-05T05:44:59.556Z,1.74
2023-03-05T05:45:59.648Z,1.73
2023-03-05T05:46:59.534Z,1.73
2023-03-05T05:47:59.555Z,1.71
2023-03-05T05:48:59.665Z,1.68
2023-03-05T05:49:59.507Z,1.68
2023-03-05T05:50:59.523Z,1.67
2023-03-05T05:51:59.487Z,1.67
2023-03-05T05:52:59.630Z,1.67
2023-03-05T05:53:59.485Z,1.68
2023-03-05T05:54:59.476Z,1.67
2023-03-05T05:55:59.482Z,1.67
2023-03-05T05:57:02.442Z,1.67
2023-03-05T05:57:59.463Z,1.67
2023-03-05T05:58:59.408Z,1.66
2023-03-05T05:59:59.433Z,1.68
2023-03-05T06:00:59.425Z,1.70
2023-03-05T06:01:59.470Z,1.71
2023-03-05T06:02:59.420Z,1.73
2023-03-05T06:03:59.355Z,1.74
2023-03-05T06:04:59.372Z,1.74
2023-03-05T06:05:59.342Z,1.74
2023-03-05T06:06:59.348Z,1.73
2023-03-05T06:07:59.356Z,1.71
2023-03-05T06:08:59.297Z,1.71
2023-03-05T06:09:59.318Z,1.68
2023-03-05T06:10:59.310Z,1.68
2023-03-05T06:12:02.300Z,1.63
2023-03-05T06:12:59.389Z,1.67
2023-03-05T06:13:59.285Z,1.63
2023-03-05T06:14:59.309Z,1.66
2023-03-05T06:15:59.242Z,1.63
2023-03-05T06:16:59.252Z,1.63
2023-03-05T06:17:59.232Z,1.66
2023-03-05T06:18:59.201Z,1.66
2023-03-05T06:19:59.196Z,1.63
2023-03-05T06:20:59.182Z,1.62
2023-03-05T06:21:59.235Z,1.62
2023-03-05T06:22:59.158Z,1.60
2023-03-05T06:23:59.178Z,1.63
2023-03-05T06:24:59.173Z,1.62
2023-03-05T06:25:59.150Z,1.63
2023-03-05T06:27:02.141Z,1.66
2023-03-05T06:27:59.127Z,1.67
2023-03-05T06:28:59.168Z,1.63
2023-03-05T06:29:59.110Z,1.66
2023-03-05T06:30:59.193Z,1.68
2023-03-05T06:31:59.114Z,1.66
2023-03-05T06:32:59.081Z,1.66
2023-03-05T06:33:59.075Z,1.67
2023-03-05T06:34:59.031Z,1.66
2023-03-05T06:35:59.101Z,1.63
2023-03-05T06:36:59.047Z,1.63
2023-03-05T06:37:59.003Z,1.63
2023-03-05T06:38:59.022Z,1.60
2023-03-05T06:39:58.982Z,1.60
2023-03-05T06:40:58.990Z,1.62
2023-03-05T06:42:01.980Z,1.60
2023-03-05T06:42:58.968Z,1.63
2023-03-05T06:43:58.936Z,1.62
2023-03-05T06:44:58.952Z,1.63
2023-03-05T06:45:58.959Z,1.66
2023-03-05T06:46:58.902Z,1.68
2023-03-05T06:47:58.921Z,1.68
2023-03-05T06:48:58.912Z,1.70
2023-03-05T06:49:58.907Z,1.70
2023-03-05T06:50:58.887Z,1.68
2023-03-05T06:51:58.852Z,1.70
2023-03-05T06:52:58.865Z,1.70
2023-03-05T06:53:58.893Z,1.71
2023-03-05T06:54:59.008Z,1.73
2023-03-05T06:55:58.810Z,1.73
2023-03-05T06:57:01.960Z,1.76
2023-03-05T06:57:58.810Z,1.78
2023-03-05T06:58:58.817Z,1.80
2023-03-05T06:59:58.805Z,1.84
2023-03-05T07:00:58.845Z,1.88
2023-03-05T07:01:58.782Z,1.89
2023-03-05T07:02:58.744Z,1.91
2023-03-05T07:03:58.775Z,1.94
2023-03-05T07:04:58.766Z,1.95
2023-03-05T07:05:58.709Z,1.99
2023-03-05T07:06:58.796Z,1.99
2023-03-05T07:07:58.723Z,2.04
2023-03-05T07:08:58.716Z,2.07
2023-03-05T07:09:58.667Z,2.07
2023-03-05T07:10:58.682Z,2.10
2023-03-05T07:12:01.667Z,2.11
2023-03-05T07:12:58.668Z,2.13
2023-03-05T07:13:58.628Z,2.14
2023-03-05T07:14:58.619Z,2.17
2023-03-05T07:15:58.633Z,2.17
2023-03-05T07:16:58.598Z,2.20
2023-03-05T07:17:58.589Z,2.22
2023-03-05T07:18:58.569Z,2.22
2023-03-05T07:19:58.599Z,2.24
2023-03-05T07:20:58.550Z,2.28
2023-03-05T07:21:58.573Z,2.31
2023-03-05T07:22:58.591Z,2.31
2023-03-05T07:23:58.544Z,2.36
2023-03-05T07:24:58.531Z,2.35
2023-03-05T07:25:58.539Z,2.33
2023-03-05T07:27:01.490Z,2.33
2023-03-05T07:27:58.550Z,2.36
2023-03-05T07:28:58.535Z,2.36
2023-03-05T07:29:58.460Z,2.39
2023-03-05T07:30:58.520Z,2.39
2023-03-05T07:31:58.482Z,2.43
2023-03-05T07:32:58.418Z,2.46
2023-03-05T07:33:58.443Z,2.46
2023-03-05T07:34:58.434Z,2.49
2023-03-05T07:35:58.454Z,2.51
2023-03-05T07:36:58.430Z,2.54
2023-03-05T07:37:58.398Z,2.56
2023-03-05T07:38:58.384Z,2.60
2023-03-05T07:39:58.517Z,2.62
2023-03-05T07:40:58.342Z,2.64
2023-03-05T07:42:01.459Z,2.68
2023-03-05T07:42:58.345Z,2.68
2023-03-05T07:43:58.312Z,2.69
2023-03-05T07:44:58.336Z,2.68
2023-03-05T07:45:58.319Z,2.71
2023-03-05T07:46:58.320Z,2.69
2023-03-05T07:47:58.278Z,2.71
2023-03-05T07:48:58.322Z,2.71
2023-03-05T07:49:58.272Z,2.69
2023-03-05T07:50:58.252Z,2.69
2023-03-05T07:51:58.240Z,2.72
2023-03-05T07:52:58.252Z,2.75
2023-03-05T07:53:58.242Z,2.75
2023-03-05T07:54:58.194Z,2.79
2023-03-05T07:55:58.231Z,2.82
2023-03-05T07:57:01.204Z,2.83
2023-03-05T07:57:58.207Z,2.85
2023-03-05T07:58:58.206Z,2.86
2023-03-05T07:59:58.180Z,2.92
2023-03-05T08:00:58.157Z,2.93
2023-03-05T08:01:58.136Z,2.93
2023-03-05T08:02:58.116Z,2.93
2023-03-05T08:03:58.190Z,2.97
2023-03-05T08:04:58.175Z,3.01
2023-03-05T08:05:58.122Z,3.03
2023-03-05T08:06:58.103Z,3.05
2023-03-05T08:07:58.056Z,3.10
2023-03-05T08:08:58.059Z,3.16
2023-03-05T08:09:58.077Z,3.19
2023-03-05T08:10:58.188Z,3.22
2023-03-05T08:12:01.025Z,3.25
2023-03-05T08:12:58.056Z,3.29
2023-03-05T08:13:58.023Z,3.31
2023-03-05T08:14:58.027Z,3.37
2023-03-05T08:15:58.019Z,3.44
2023-03-05T08:16:58.000Z,3.47
2023-03-05T08:17:57.968Z,3.50
2023-03-05T08:18:58.059Z,3.51
2023-03-05T08:19:57.948Z,3.51
2023-03-05T08:20:57.946Z,3.50
2023-03-05T08:21:57.953Z,3.53
2023-03-05T08:22:57.935Z,3.59
2023-03-05T08:23:57.925Z,3.63
2023-03-05T08:24:57.891Z,3.65
2023-03-05T08:25:57.938Z,3.68
2023-03-05T08:27:00.870Z,3.76
2023-03-05T08:27:57.880Z,3.74
2023-03-05T08:28:57.887Z,3.73
2023-03-05T08:29:57.861Z,3.78
2023-03-05T08:30:57.876Z,3.76
2023-03-05T08:31:57.925Z,3.70
2023-03-05T08:32:57.815Z,3.68
2023-03-05T08:33:57.853Z,3.62
2023-03-05T08:34:57.832Z,3.63
2023-03-05T08:35:58.808Z,3.68
2023-03-05T08:36:57.780Z,3.69
2023-03-05T08:37:57.794Z,3.74
2023-03-05T08:38:57.770Z,3.80
2023-03-05T08:39:57.742Z,3.84
2023-03-05T08:40:57.747Z,3.92
2023-03-05T08:42:00.729Z,3.96
2023-03-05T08:42:57.722Z,4.02
2023-03-05T08:43:57.700Z,4.04
2023-03-05T08:44:57.724Z,4.04
2023-03-05T08:45:57.707Z,4.06
2023-03-05T08:46:57.763Z,4.05
2023-03-05T08:47:57.689Z,4.06
2023-03-05T08:48:57.756Z,4.04
2023-03-05T08:49:57.703Z,4.06
2023-03-05T08:50:57.650Z,4.02
2023-03-05T08:51:57.622Z,4.06
2023-03-05T08:52:57.634Z,4.10
2023-03-05T08:53:57.624Z,4.14
2023-03-05T08:54:57.612Z,4.13
2023-03-05T08:55:57.592Z,4.14
2023-03-05T08:57:00.601Z,4.14
2023-03-05T08:57:57.578Z,4.23
2023-03-05T08:58:57.932Z,4.31
2023-03-05T08:59:57.561Z,4.35
2023-03-05T09:00:57.556Z,4.35
2023-03-05T09:01:57.580Z,4.34
2023-03-05T09:02:57.558Z,4.40
2023-03-05T09:03:57.495Z,4.40
2023-03-05T09:04:57.503Z,4.41
2023-03-05T09:05:57.505Z,4.45
2023-03-05T09:06:57.478Z,4.52
2023-03-05T09:07:57.454Z,4.55
2023-03-05T09:08:57.439Z,4.60
2023-03-05T09:09:57.504Z,4.66
2023-03-05T09:10:58.413Z,4.71
2023-03-05T09:12:00.423Z,4.73
2023-03-05T09:12:57.446Z,4.77
2023-03-05T09:13:57.417Z,4.82
2023-03-05T09:14:57.435Z,4.90
2023-03-05T09:15:57.448Z,4.89
2023-03-05T09:16:57.362Z,4.93
2023-03-05T09:17:57.347Z,4.96
2023-03-05T09:18:57.380Z,5.00
2023-03-05T09:19:57.332Z,5.08
2023-03-05T09:20:57.475Z,5.08
2023-03-05T09:21:57.342Z,5.05
2023-03-05T09:22:57.341Z,4.93
2023-03-05T09:23:57.318Z,4.93
2023-03-05T09:24:57.330Z,4.92
2023-03-05T09:25:57.277Z,4.97
2023-03-05T09:27:00.255Z,5.08
2023-03-05T09:27:57.287Z,5.18
2023-03-05T09:28:57.240Z,5.26
2023-03-05T09:29:57.235Z,5.28
2023-03-05T09:30:57.249Z,5.20
2023-03-05T09:31:57.294Z,5.26
2023-03-05T09:32:57.352Z,5.35
2023-03-05T09:33:57.215Z,5.32
2023-03-05T09:34:57.178Z,5.35
2023-03-05T09:35:57.222Z,5.26
2023-03-05T09:36:57.162Z,5.32
2023-03-05T09:37:57.179Z,5.33
2023-03-05T09:38:57.167Z,5.39
2023-03-05T09:39:57.120Z,5.47
2023-03-05T09:40:57.220Z,5.57
2023-03-05T09:42:00.153Z,5.73
2023-03-05T09:42:57.137Z,5.84
2023-03-05T09:43:57.115Z,5.90
2023-03-05T09:44:57.096Z,6.05
2023-03-05T09:45:57.097Z,6.26
2023-03-05T09:46:57.072Z,6.39
2023-03-05T09:47:57.110Z,6.57
2023-03-05T09:48:57.096Z,6.81
2023-03-05T09:49:57.022Z,7.05
2023-03-05T09:50:57.008Z,7.29
2023-03-05T09:51:56.999Z,7.42
2023-03-05T09:52:56.991Z,7.60
2023-03-05T09:53:57.007Z,7.47
2023-03-05T09:54:56.994Z,7.51
2023-03-05T09:55:57.937Z,7.66
2023-03-05T09:56:59.977Z,7.73
2023-03-05T09:57:57.051Z,7.80
2023-03-05T09:58:56.963Z,7.83
2023-03-05T09:59:56.943Z,7.76
2023-03-05T10:00:56.934Z,7.60
2023-03-05T10:01:56.927Z,7.69
2023-03-05T10:02:56.928Z,7.72
2023-03-05T10:03:56.946Z,7.79
2023-03-05T10:04:56.863Z,7.93
2023-03-05T10:05:56.866Z,8.03
2023-03-05T10:06:56.881Z,8.15
2023-03-05T10:07:56.846Z,8.16
2023-03-05T10:08:56.959Z,8.06
2023-03-05T10:09:57.179Z,8.12
2023-03-05T10:10:57.813Z,8.24
2023-03-05T10:11:59.860Z,8.28
2023-03-05T10:12:57.790Z,8.37
2023-03-05T10:13:56.849Z,8.37
2023-03-05T10:14:56.817Z,8.44
2023-03-05T10:15:56.776Z,8.33
2023-03-05T10:16:56.841Z,8.26
2023-03-05T10:17:56.735Z,8.26
2023-03-05T10:18:56.747Z,8.24
2023-03-05T10:19:56.732Z,8.30
2023-03-05T10:20:56.752Z,8.37
2023-03-05T10:21:56.722Z,8.45
2023-03-05T10:22:56.702Z,8.49
2023-03-05T10:23:56.667Z,8.55
2023-03-05T10:24:56.668Z,8.18
2023-03-05T10:25:56.669Z,7.90
2023-03-05T10:26:59.675Z,7.56
2023-03-05T10:27:57.630Z,7.53
2023-03-05T10:28:56.608Z,7.63
2023-03-05T10:29:56.609Z,7.77
2023-03-05T10:30:56.596Z,8.00
2023-03-05T10:31:56.669Z,8.05
2023-03-05T10:32:56.571Z,8.16
2023-03-05T10:33:56.593Z,8.34
2023-03-05T10:34:56.580Z,8.46
2023-03-05T10:35:56.594Z,8.58
2023-03-05T10:36:58.336Z,8.67
2023-03-05T10:37:56.519Z,8.71
2023-03-05T10:38:56.510Z,8.84
2023-03-05T10:39:56.515Z,8.76
2023-03-05T10:40:56.520Z,8.70
2023-03-05T10:41:59.515Z,8.70
2023-03-05T10:42:56.530Z,8.78
2023-03-05T10:43:56.452Z,8.88
2023-03-05T10:44:56.495Z,9.00
2023-03-05T10:45:56.525Z,9.06
2023-03-05T10:46:56.431Z,8.88
2023-03-05T10:47:56.451Z,8.67
2023-03-05T10:48:56.409Z,8.41
2023-03-05T10:49:56.417Z,8.31
2023-03-05T10:50:56.422Z,8.28
2023-03-05T10:51:56.407Z,8.31
2023-03-05T10:52:56.399Z,8.09
2023-03-05T10:53:58.199Z,7.90
2023-03-05T10:54:56.344Z,7.83
2023-03-05T10:55:57.285Z,7.75
2023-03-05T10:56:59.321Z,7.66
2023-03-05T10:57:57.291Z,7.61
2023-03-05T10:58:56.373Z,7.61
2023-03-05T10:59:56.322Z,7.69
2023-03-05T11:00:56.354Z,7.88
2023-03-05T11:01:56.275Z,8.01
2023-03-05T11:02:56.266Z,7.97
2023-03-05T11:03:56.275Z,7.88
2023-03-05T11:04:56.234Z,7.85
2023-03-05T11:05:56.257Z,7.79
2023-03-05T11:06:56.263Z,7.76
2023-03-05T11:07:56.243Z,7.72
2023-03-05T11:08:57.149Z,7.69
2023-03-05T11:09:57.154Z,7.67
2023-03-05T11:10:56.207Z,7.66
2023-03-05T11:11:59.193Z,7.66
2023-03-05T11:12:56.202Z,7.61
2023-03-05T11:13:56.148Z,7.53
2023-03-05T11:14:56.187Z,7.53
2023-03-05T11:15:57.131Z,7.54
2023-03-05T11:16:56.132Z,7.60
2023-03-05T11:17:56.126Z,7.69
2023-03-05T11:18:56.226Z,7.73
2023-03-05T11:19:56.114Z,7.80
2023-03-05T11:20:56.103Z,7.82
2023-03-05T11:21:56.053Z,7.77
2023-03-05T11:22:56.077Z,7.72
2023-03-05T11:23:56.069Z,7.72
2023-03-05T11:24:56.057Z,7.76
2023-03-05T11:25:56.068Z,7.72
2023-03-05T11:26:59.398Z,7.63
2023-03-05T11:27:56.101Z,7.60
2023-03-05T11:28:56.437Z,7.61
2023-03-05T11:29:56.006Z,7.66
2023-03-05T11:30:56.033Z,7.60
2023-03-05T11:31:56.931Z,7.50
2023-03-05T11:32:57.107Z,7.43
2023-03-05T11:33:56.089Z,7.39
2023-03-05T11:34:56.225Z,7.42
2023-03-05T11:35:56.913Z,7.42
2023-03-05T11:36:57.105Z,7.48
2023-03-05T11:37:55.924Z,7.53
2023-03-05T11:38:55.891Z,7.56
2023-03-05T11:39:56.018Z,7.57
2023-03-05T11:40:56.862Z,7.56
2023-03-05T11:41:58.852Z,7.53
2023-03-05T11:42:55.887Z,7.54
2023-03-05T11:43:55.833Z,7.53
2023-03-05T11:44:55.845Z,7.47
2023-03-05T11:45:56.831Z,7.48
2023-03-05T11:46:55.837Z,7.54
2023-03-05T11:47:55.834Z,7.56
2023-03-05T11:48:55.788Z,7.60
2023-03-05T11:49:55.800Z,7.58
2023-03-05T11:50:55.775Z,7.50
2023-03-05T11:51:55.756Z,7.39
2023-03-05T11:52:55.768Z,7.28
2023-03-05T11:53:55.769Z,7.20
2023-03-05T11:54:55.767Z,7.20
2023-03-05T11:55:56.716Z,7.24
2023-03-05T11:56:58.725Z,7.21
2023-03-05T11:57:56.680Z,7.21
2023-03-05T11:58:55.712Z,7.20
2023-03-05T11:59:55.692Z,7.25
2023-03-05T12:00:56.647Z,7.21
2023-03-05T12:01:55.682Z,7.25
2023-03-05T12:02:55.784Z,7.29
2023-03-05T12:03:55.858Z,7.35
2023-03-05T12:04:55.632Z,7.40
2023-03-05T12:05:55.633Z,7.45
2023-03-05T12:06:55.753Z,7.51
2023-03-05T12:07:55.622Z,7.58
2023-03-05T12:08:55.572Z,7.66
2023-03-05T12:09:55.584Z,7.73
2023-03-05T12:10:55.567Z,7.82
2023-03-05T12:11:58.830Z,7.79
2023-03-05T12:12:55.584Z,7.80
2023-03-05T12:13:56.474Z,7.79
2023-03-05T12:14:55.552Z,7.87
2023-03-05T12:15:56.525Z,7.91
2023-03-05T12:16:55.513Z,7.93
2023-03-05T12:17:55.509Z,7.88
2023-03-05T12:18:55.471Z,7.90
2023-03-05T12:19:55.484Z,7.88
2023-03-05T12:20:56.472Z,7.85
2023-03-05T12:21:55.847Z,7.80
2023-03-05T12:22:56.518Z,7.79
2023-03-05T12:23:56.723Z,7.80
2023-03-05T12:24:56.438Z,7.82
2023-03-05T12:25:55.551Z,7.79
2023-03-05T12:26:58.495Z,7.61
2023-03-05T12:27:55.416Z,7.67
2023-03-05T12:28:55.397Z,7.61
2023-03-05T12:29:55.420Z,7.70
2023-03-05T12:30:55.388Z,7.80
2023-03-05T12:31:55.341Z,7.93
2023-03-05T12:32:55.476Z,8.01
2023-03-05T12:33:55.326Z,8.09
2023-03-05T12:34:55.310Z,8.05
2023-03-05T12:35:55.418Z,7.91
2023-03-05T12:36:55.295Z,7.75
2023-03-05T12:37:55.308Z,7.54
2023-03-05T12:38:55.297Z,7.40
2023-03-05T12:39:55.265Z,7.35
2023-03-05T12:40:55.443Z,7.33
2023-03-05T12:41:58.336Z,7.24
2023-03-05T12:42:55.270Z,7.32
2023-03-05T12:43:55.234Z,7.43
2023-03-05T12:44:55.233Z,7.70
2023-03-05T12:45:55.222Z,7.83
2023-03-05T12:46:55.562Z,7.98
2023-03-05T12:47:55.296Z,8.06
2023-03-05T12:48:55.194Z,8.15
2023-03-05T12:49:55.153Z,8.24
2023-03-05T12:50:55.142Z,8.28
2023-03-05T12:51:55.137Z,8.27
2023-03-05T12:52:55.155Z,8.31
2023-03-05T12:53:55.138Z,8.41
2023-03-05T12:54:55.162Z,8.46
2023-03-05T12:55:55.125Z,8.45
2023-03-05T12:56:58.315Z,8.45
2023-03-05T12:57:55.098Z,8.42
2023-03-05T12:58:55.200Z,8.44
2023-03-05T12:59:56.079Z,8.58
2023-03-05T13:00:56.755Z,8.45
2023-03-05T13:01:56.057Z,8.44
2023-03-05T13:02:56.144Z,8.51
2023-03-05T13:03:55.115Z,8.64
2023-03-05T13:04:54.992Z,8.87
2023-03-05T13:05:55.041Z,9.13
2023-03-05T13:06:55.008Z,9.32
2023-03-05T13:07:55.163Z,9.50
2023-03-05T13:08:54.978Z,9.62
2023-03-05T13:09:54.996Z,9.72
2023-03-05T13:10:54.973Z,9.79
2023-03-05T13:11:58.054Z,9.94
2023-03-05T13:12:54.929Z,10.01
2023-03-05T13:14:54.893Z,10.20
2023-03-05T13:15:54.927Z,10.30
2023-03-05T13:16:54.890Z,10.34
2023-03-05T13:17:54.923Z,10.41
2023-03-05T13:18:54.868Z,10.38